KEWK/EWK METAR and TAF weather

Enter ICAO airport designator
Station Type Date Time Source
KEWK METAR 2021/09/28 02:56 UTC NOAA

KEWK 280256Z AUTO 15008KT 10SM CLR 22/13 A2988 RMK AO2 SLP104 T02220128 53011


Station Type Date Time Source
KEWK Decoded METAR 2021/09/28 02:56 UTC NOAA

Newton, Newton City/County Airport, KS, United States (KEWK) 38-03N 097-17W
Sep 27, 2021 - 10:56 PM EDT / 2021.09.28 0256 UTC
Wind: from the SSE (150 degrees) at 9 MPH (8 KT):0
Visibility: 10 mile(s):0
Sky conditions: clear
Temperature: 72.0 F (22.2 C)
Dew Point: 55.0 F (12.8 C)
Relative Humidity: 55%
Pressure (altimeter): 29.88 in. Hg (1011 hPa)
Pressure tendency: 0.03 inches (1.1 hPa) higher than three hours ago
ob: KEWK 280256Z AUTO 15008KT 10SM CLR 22/13 A2988 RMK AO2 SLP104 T02220128 53011
cycle: 3

Station Type Date Time Source
KEWK TAF UTC NOAA

Error!

Example: see airport list